createdAt,value
2019-04-26T00:01:52.497Z,15.40
2019-04-26T00:05:56.223Z,15.20
2019-04-26T00:10:01.311Z,15.10
2019-04-26T00:14:24.519Z,15.10
2019-04-26T00:18:28.333Z,15.00
2019-04-26T00:22:32.143Z,14.90
2019-04-26T00:26:35.596Z,14.40
2019-04-26T00:30:39.384Z,13.90
2019-04-26T00:34:42.834Z,13.70
2019-04-26T00:38:46.278Z,13.60
2019-04-26T00:42:52.021Z,13.40
2019-04-26T00:46:58.141Z,13.60
2019-04-26T00:51:03.987Z,13.90
2019-04-26T00:55:07.082Z,14.20
2019-04-26T00:59:11.308Z,13.80
2019-04-26T01:03:15.348Z,13.80
2019-04-26T01:07:19.263Z,14.50
2019-04-26T01:11:23.821Z,14.50
2019-04-26T01:15:27.486Z,14.30
2019-04-26T01:19:32.084Z,14.40
2019-04-26T01:23:38.742Z,14.80
2019-04-26T01:27:42.331Z,14.70
2019-04-26T01:31:54.727Z,13.50
2019-04-26T01:35:58.455Z,13.30
2019-04-26T01:40:06.703Z,13.50
2019-04-26T01:44:14.788Z,13.70
2019-04-26T01:48:48.726Z,12.70
2019-04-26T01:52:53.227Z,13.70
2019-04-26T01:57:00.015Z,13.70
2019-04-26T02:01:14.067Z,13.60
2019-04-26T02:05:22.579Z,13.40
2019-04-26T02:09:26.490Z,12.70
2019-04-26T02:13:30.945Z,12.40
2019-04-26T02:17:34.550Z,12.30
2019-04-26T02:21:40.367Z,11.70
2019-04-26T02:25:43.815Z,11.10
2019-04-26T02:29:47.267Z,11.10
2019-04-26T02:33:51.652Z,10.80
2019-04-26T02:37:55.162Z,10.80
2019-04-26T02:42:01.701Z,11.00
2019-04-26T02:46:22.565Z,11.20
2019-04-26T02:50:45.213Z,11.10
2019-04-26T02:54:54.620Z,11.20
2019-04-26T02:59:01.151Z,10.90
2019-04-26T03:03:06.913Z,10.80
2019-04-26T03:07:13.436Z,11.00
2019-04-26T03:11:20.285Z,11.00
2019-04-26T03:15:28.433Z,11.10
2019-04-26T03:19:43.054Z,11.20
2019-04-26T03:23:59.531Z,11.20
2019-04-26T03:28:12.064Z,11.00
2019-04-26T03:32:21.504Z,11.00
2019-04-26T03:36:35.422Z,10.90
2019-04-26T03:40:44.274Z,11.00
2019-04-26T03:44:59.394Z,10.90
2019-04-26T03:49:36.128Z,10.90
2019-04-26T03:53:45.874Z,10.90
2019-04-26T03:57:56.666Z,10.80
2019-04-26T04:02:13.847Z,10.50
2019-04-26T04:06:22.716Z,10.30
2019-04-26T04:10:41.989Z,10.10
2019-04-26T04:15:12.147Z,10.10
2019-04-26T04:19:23.521Z,10.00
2019-04-26T04:23:32.926Z,10.00
2019-04-26T04:27:51.349Z,10.00
2019-04-26T04:32:00.910Z,10.10
2019-04-26T04:36:07.737Z,10.20
2019-04-26T04:40:40.803Z,10.20
2019-04-26T04:45:07.310Z,10.10
2019-04-26T04:49:13.522Z,10.20
2019-04-26T04:53:20.095Z,10.30
2019-04-26T04:57:35.631Z,10.70
2019-04-26T05:01:52.552Z,10.70
2019-04-26T05:06:18.994Z,10.60
2019-04-26T05:10:29.420Z,10.80
2019-04-26T05:14:50.896Z,11.00
2019-04-26T05:19:26.886Z,11.00
2019-04-26T05:23:49.706Z,11.00
2019-04-26T05:28:21.186Z,10.80
2019-04-26T05:32:50.670Z,11.00
2019-04-26T05:37:17.783Z,11.40
2019-04-26T05:41:48.117Z,11.80
2019-04-26T05:45:59.255Z,12.00
2019-04-26T05:50:34.098Z,11.90
2019-04-26T05:54:51.130Z,12.20
2019-04-26T05:59:23.122Z,12.40
2019-04-26T06:03:40.199Z,12.50
2019-04-26T06:08:31.174Z,12.80
2019-04-26T06:12:36.528Z,12.90
2019-04-26T06:17:08.302Z,13.00
2019-04-26T06:21:15.253Z,13.10
2019-04-26T06:25:26.329Z,13.30
2019-04-26T06:29:35.955Z,13.40
2019-04-26T06:33:55.077Z,13.60
2019-04-26T06:38:24.594Z,13.50
2019-04-26T06:42:36.675Z,13.70
2019-04-26T06:47:14.636Z,14.20
2019-04-26T06:51:30.087Z,14.40
2019-04-26T06:55:43.834Z,14.70
2019-04-26T07:00:21.346Z,15.00
2019-04-26T07:05:02.948Z,15.20
2019-04-26T07:09:11.494Z,15.20
2019-04-26T07:13:40.490Z,15.30
2019-04-26T07:17:59.030Z,15.30
2019-04-26T07:22:40.694Z,15.40
2019-04-26T07:27:03.150Z,15.50
2019-04-26T07:31:15.498Z,15.50
2019-04-26T07:35:31.379Z,15.40
2019-04-26T07:39:54.131Z,15.60
2019-04-26T07:44:03.713Z,15.80
2019-04-26T07:48:22.406Z,16.00
2019-04-26T07:52:38.112Z,16.20
2019-04-26T07:56:56.108Z,16.20
2019-04-26T08:01:14.089Z,16.00
2019-04-26T08:05:25.750Z,16.10
2019-04-26T08:09:32.610Z,16.10
2019-04-26T08:13:47.827Z,16.30
2019-04-26T08:17:58.767Z,16.40
2019-04-26T08:22:14.887Z,16.30
2019-04-26T08:26:13.566Z,16.50
2019-04-26T08:30:19.297Z,16.60
2019-04-26T08:34:29.809Z,16.00
2019-04-26T08:38:34.142Z,16.20
2019-04-26T08:42:43.412Z,16.80
2019-04-26T08:46:49.827Z,17.00
2019-04-26T08:50:56.440Z,17.20
2019-04-26T08:55:03.482Z,17.10
2019-04-26T08:59:22.050Z,17.00
2019-04-26T09:03:32.326Z,17.50
2019-04-26T09:07:38.627Z,17.80
2019-04-26T09:11:42.815Z,18.00
2019-04-26T09:16:05.807Z,18.20
2019-04-26T09:20:09.735Z,18.00
2019-04-26T09:24:29.758Z,17.60
2019-04-26T09:28:41.031Z,17.80
2019-04-26T09:32:46.479Z,17.90
2019-04-26T09:36:50.299Z,18.10
2019-04-26T09:40:56.304Z,18.10
2019-04-26T09:45:05.786Z,17.90
2019-04-26T09:49:13.838Z,18.20
2019-04-26T09:53:17.550Z,18.00
2019-04-26T09:57:21.004Z,17.80
2019-04-26T10:01:25.968Z,17.90
2019-04-26T10:05:29.907Z,18.00
2019-04-26T10:09:33.385Z,17.70
2019-04-26T10:13:50.767Z,17.70
2019-04-26T10:17:54.202Z,17.80
2019-04-26T10:21:58.176Z,18.00
2019-04-26T10:26:01.887Z,18.10
2019-04-26T10:30:09.573Z,18.10
2019-04-26T10:34:13.637Z,18.20
2019-04-26T10:38:19.414Z,17.90
2019-04-26T10:42:22.534Z,17.90
2019-04-26T10:46:28.302Z,17.30
2019-04-26T10:50:32.928Z,17.40
2019-04-26T10:54:41.031Z,17.60
2019-04-26T10:58:46.956Z,17.00
2019-04-26T11:02:50.404Z,17.20
2019-04-26T11:06:53.936Z,17.60
2019-04-26T11:10:57.794Z,17.50
2019-04-26T11:15:01.246Z,17.30
2019-04-26T11:19:05.227Z,17.50
2019-04-26T11:23:11.715Z,17.50
2019-04-26T11:27:15.126Z,17.80
2019-04-26T11:31:18.920Z,17.50
2019-04-26T11:35:22.371Z,17.10
2019-04-26T11:39:28.139Z,16.80
2019-04-26T11:43:30.981Z,17.20
2019-04-26T11:47:37.083Z,17.80
2019-04-26T11:51:39.623Z,17.50
2019-04-26T11:55:43.250Z,17.10
2019-04-26T11:59:46.686Z,16.70
2019-04-26T12:03:51.781Z,16.50
2019-04-26T12:08:13.280Z,16.40
2019-04-26T12:12:17.041Z,16.30
2019-04-26T12:16:20.588Z,16.20
2019-04-26T12:20:26.799Z,16.30
2019-04-26T12:24:32.501Z,16.40
2019-04-26T12:28:36.229Z,16.50
2019-04-26T12:32:39.603Z,16.50
2019-04-26T12:36:43.104Z,16.40
2019-04-26T12:40:47.598Z,16.30
2019-04-26T12:44:52.980Z,16.30
2019-04-26T12:48:56.859Z,16.20
2019-04-26T12:53:00.730Z,16.20
2019-04-26T12:57:05.915Z,16.00
2019-04-26T13:01:12.202Z,15.90
2019-04-26T13:05:18.994Z,15.90
2019-04-26T13:09:26.406Z,16.00
2019-04-26T13:13:46.947Z,16.00
2019-04-26T13:17:52.273Z,15.90
2019-04-26T13:21:55.791Z,15.80
2019-04-26T13:26:01.249Z,15.80
2019-04-26T13:30:10.382Z,15.70
2019-04-26T13:34:12.011Z,15.50
2019-04-26T13:38:15.460Z,15.60
2019-04-26T13:42:19.822Z,15.60
2019-04-26T13:46:28.002Z,15.50
2019-04-26T13:50:36.002Z,15.50
2019-04-26T13:54:39.461Z,15.20
2019-04-26T13:58:42.979Z,15.20
2019-04-26T14:02:46.413Z,15.10
2019-04-26T14:06:49.866Z,15.00
2019-04-26T14:10:53.314Z,14.70
2019-04-26T14:14:56.757Z,14.80
2019-04-26T14:19:00.483Z,14.80
2019-04-26T14:23:22.124Z,14.60
2019-04-26T14:27:27.221Z,14.60
2019-04-26T14:31:30.981Z,14.60
2019-04-26T14:35:34.434Z,14.50
2019-04-26T14:39:49.626Z,14.50
2019-04-26T14:43:43.396Z,14.60
2019-04-26T14:47:47.828Z,14.50
2019-04-26T14:51:55.982Z,14.50
2019-04-26T14:55:56.903Z,14.40
2019-04-26T15:00:00.369Z,14.30
2019-04-26T15:04:23.143Z,14.30
2019-04-26T15:08:26.677Z,14.20
2019-04-26T15:12:30.387Z,14.20
2019-04-26T15:16:34.074Z,14.20
2019-04-26T15:20:37.523Z,14.20
2019-04-26T15:24:42.171Z,14.10
2019-04-26T15:28:50.385Z,14.00
2019-04-26T15:32:52.938Z,14.00
2019-04-26T15:36:56.769Z,14.00
2019-04-26T15:41:11.461Z,13.80
2019-04-26T15:45:38.717Z,13.80
2019-04-26T15:49:40.278Z,13.80
2019-04-26T15:53:48.847Z,13.90
2019-04-26T15:57:48.903Z,13.90
2019-04-26T16:01:52.355Z,13.90
2019-04-26T16:05:59.133Z,13.80
2019-04-26T16:10:01.230Z,13.40
2019-04-26T16:14:05.480Z,13.20
2019-04-26T16:18:10.590Z,13.20
2019-04-26T16:22:14.583Z,13.00
2019-04-26T16:26:18.041Z,13.00
2019-04-26T16:30:39.456Z,12.90
2019-04-26T16:34:47.665Z,12.90
2019-04-26T16:38:56.452Z,12.90
2019-04-26T16:42:59.442Z,12.80
2019-04-26T16:47:03.571Z,12.80
2019-04-26T16:51:08.281Z,12.70
2019-04-26T16:55:17.807Z,12.60
2019-04-26T16:59:22.539Z,12.50
2019-04-26T17:03:23.559Z,12.50
2019-04-26T17:07:27.339Z,12.40
2019-04-26T17:11:36.191Z,12.40
2019-04-26T17:15:36.414Z,12.40
2019-04-26T17:19:40.115Z,12.30
2019-04-26T17:23:45.212Z,12.30
2019-04-26T17:27:48.979Z,12.30
2019-04-26T17:31:52.439Z,12.20
2019-04-26T17:35:59.354Z,12.10
2019-04-26T17:40:02.958Z,12.10
2019-04-26T17:44:10.607Z,12.10
2019-04-26T17:48:14.027Z,12.00
2019-04-26T17:52:16.832Z,12.00
2019-04-26T17:56:21.513Z,12.00
2019-04-26T18:00:28.500Z,12.00
2019-04-26T18:04:36.177Z,11.90
2019-04-26T18:08:45.194Z,11.80
2019-04-26T18:12:43.531Z,11.80
2019-04-26T18:16:48.616Z,11.70
2019-04-26T18:21:02.956Z,11.70
2019-04-26T18:25:10.778Z,11.60
2019-04-26T18:29:13.247Z,11.30
2019-04-26T18:33:17.492Z,11.20
2019-04-26T18:37:23.079Z,11.10
2019-04-26T18:41:28.691Z,11.10
2019-04-26T18:45:31.790Z,11.10
2019-04-26T18:49:35.503Z,11.00
2019-04-26T18:53:43.902Z,11.00
2019-04-26T18:57:53.957Z,11.00
2019-04-26T19:01:53.600Z,10.90
2019-04-26T19:06:02.539Z,10.90
2019-04-26T19:10:04.907Z,10.90
2019-04-26T19:14:11.349Z,10.80
2019-04-26T19:18:22.029Z,10.90
2019-04-26T19:22:25.867Z,10.90
2019-04-26T19:26:33.002Z,10.90
2019-04-26T19:30:39.548Z,10.90
2019-04-26T19:34:42.098Z,10.90
2019-04-26T19:38:49.818Z,10.80
2019-04-26T19:42:57.139Z,10.80
2019-04-26T19:47:06.672Z,10.80
2019-04-26T19:51:12.674Z,10.70
2019-04-26T19:55:22.581Z,10.70
2019-04-26T19:59:27.556Z,10.70
2019-04-26T20:03:33.900Z,10.70
2019-04-26T20:07:37.565Z,10.70
2019-04-26T20:11:42.139Z,10.70
2019-04-26T20:15:46.011Z,10.60
2019-04-26T20:19:53.976Z,10.50
2019-04-26T20:23:54.735Z,10.40
2019-04-26T20:27:59.892Z,10.40
2019-04-26T20:32:16.580Z,10.40
2019-04-26T20:36:19.087Z,10.40
2019-04-26T20:40:25.512Z,10.40
2019-04-26T20:44:39.200Z,10.30
2019-04-26T20:48:33.592Z,10.30
2019-04-26T20:52:37.352Z,10.20
2019-04-26T20:56:46.244Z,10.20
2019-04-26T21:00:54.564Z,10.20
2019-04-26T21:04:54.035Z,10.20
2019-04-26T21:08:59.132Z,10.20
2019-04-26T21:13:02.675Z,10.20
2019-04-26T21:17:06.485Z,10.20
2019-04-26T21:21:11.882Z,10.20
2019-04-26T21:25:21.568Z,10.20
2019-04-26T21:29:39.070Z,10.30
2019-04-26T21:34:00.458Z,10.20
2019-04-26T21:38:05.808Z,10.20
2019-04-26T21:42:10.905Z,10.30
2019-04-26T21:46:19.036Z,10.20
2019-04-26T21:50:19.541Z,10.10
2019-04-26T21:54:24.960Z,10.10
2019-04-26T21:58:28.653Z,10.10
2019-04-26T22:02:34.745Z,10.10
2019-04-26T22:06:38.234Z,10.10
2019-04-26T22:10:43.697Z,10.20
2019-04-26T22:14:50.493Z,10.20
2019-04-26T22:18:57.844Z,10.20
2019-04-26T22:23:03.005Z,10.20
2019-04-26T22:27:06.754Z,10.30
2019-04-26T22:31:10.567Z,10.20
2019-04-26T22:35:20.297Z,10.20
2019-04-26T22:39:19.723Z,10.20
2019-04-26T22:43:41.551Z,10.20
2019-04-26T22:47:53.582Z,10.30
2019-04-26T22:51:57.603Z,10.30
2019-04-26T22:56:01.418Z,10.30
2019-04-26T23:00:07.519Z,10.20
2019-04-26T23:04:11.046Z,10.20
2019-04-26T23:08:16.528Z,10.20
2019-04-26T23:12:27.673Z,10.20
2019-04-26T23:16:45.684Z,10.20
2019-04-26T23:20:53.971Z,10.20
2019-04-26T23:24:58.117Z,10.20
2019-04-26T23:29:01.755Z,10.20
2019-04-26T23:33:05.360Z,10.10
2019-04-26T23:37:09.054Z,10.00
2019-04-26T23:41:14.189Z,10.00
2019-04-26T23:45:18.439Z,10.00
2019-04-26T23:49:23.263Z,10.00
2019-04-26T23:53:27.347Z,10.00
2019-04-26T23:57:33.617Z,10.00
